Terminal Aerodrome Forecast
Issued by NWS

Home | Current Version | Previous Version | Text Only | Print | Product List | Glossary On
Versions: 1 2 3 4 5 6 7 8 9 10 11 12 13 14 15 16 17
951
FTUS46 KEKA 170810 AAA
TAFCEC
TAF AMD
KCEC 170810Z 1708/1806 15010KT P6SM OVC006
     FM171600 16010KT P6SM OVC100
     FM171800 17015G25KT P6SM VCSH OVC050 WS020/18030KT
     FM172100 17020G30KT 4SM -RA OVC035 WS020/18045KT=

USA.gov is the U.S. government's official web portal to all federal, state and local government web resources and services.